Time;durP1;ratioP1;P1;durP2;ratioP2;P2;SDS_P1;SDS_P2;PMS_P1;PMS_P2;Temp;Humidity;BMP_temperature;BMP_pressure;BME280_temperature;BME280_humidity;BME280_pressure;Samples;Min_cycle;Max_cycle;Signal;HPM_P1;HPM_P2
2024/03/11 00:00:26;;;;;;;16.63;9.70;;;15.00;99.90;;;15.30;50.86;99296.28;6050862;22;114968;-46
2024/03/11 00:02:52;;;;;;;14.87;8.80;;;14.90;99.90;;;15.29;49.56;99299.91;5988534;22;98554;-44
2024/03/11 00:05:18;;;;;;;17.43;9.77;;;14.90;99.90;;;15.24;50.42;99292.28;5975112;22;97429;-44
2024/03/11 00:07:48;;;;;;;19.57;11.60;;;14.90;99.90;;;15.27;50.51;99299.19;6023168;22;113326;-44
2024/03/11 00:10:14;;;;;;;16.20;9.53;;;14.90;99.90;;;15.30;50.13;99301.59;6008736;22;102524;-46
2024/03/11 00:12:41;;;;;;;18.40;10.57;;;14.90;99.90;;;15.27;50.63;99297.38;5991059;22;98167;-37
2024/03/11 00:15:12;;;;;;;17.23;10.77;;;14.90;99.90;;;15.28;51.73;99303.53;6003823;22;97775;-44
2024/03/11 00:17:38;;;;;;;19.90;9.93;;;14.90;99.90;;;15.31;49.67;99305.94;5978881;22;97568;-43
2024/03/11 00:20:06;;;;;;;17.47;10.03;;;14.90;99.90;;;15.22;52.40;99298.69;5967619;22;99529;-46
2024/03/11 00:22:32;;;;;;;12.00;7.40;;;14.90;99.90;;;15.30;49.77;99307.75;5965673;22;97812;-43
2024/03/11 00:24:58;;;;;;;11.20;6.67;;;14.90;99.90;;;15.32;49.33;99304.97;6006164;22;100027;-46
2024/03/11 00:27:26;;;;;;;9.40;5.73;;;14.90;99.90;;;15.32;49.53;99315.59;5926742;22;99529;-44
2024/03/11 00:29:55;;;;;;;16.60;8.40;;;14.90;99.90;;;15.23;50.81;99317.16;5977214;22;98252;-43
2024/03/11 00:32:24;;;;;;;11.60;7.40;;;14.80;99.90;;;15.24;50.56;99318.00;5940563;22;98321;-41
2024/03/11 00:34:52;;;;;;;19.20;11.33;;;14.80;99.90;;;15.16;54.26;99316.75;5923763;22;97981;-44
2024/03/11 00:37:22;;;;;;;24.93;12.50;;;14.70;99.90;;;15.11;51.67;99310.13;5965484;22;98776;-41
2024/03/11 00:39:50;;;;;;;22.10;11.77;;;14.60;99.90;;;15.00;55.90;99320.69;6006911;22;101398;-44
2024/03/11 00:42:22;;;;;;;20.87;11.87;;;14.50;99.90;;;14.99;53.56;99325.16;5976307;22;97567;-50
2024/03/11 00:44:50;;;;;;;20.83;11.97;;;14.40;99.90;;;14.96;54.53;99325.38;5949682;22;97460;-41
2024/03/11 00:47:18;;;;;;;20.03;11.83;;;14.40;99.90;;;14.93;55.46;99325.63;6002827;22;104075;-44
2024/03/11 00:49:45;;;;;;;23.07;12.07;;;14.40;99.90;;;14.97;52.98;99321.78;6040405;22;109162;-46
2024/03/11 00:52:14;;;;;;;23.50;11.97;;;14.40;99.90;;;14.90;55.52;99331.16;5929438;22;97685;-43
2024/03/11 00:54:40;;;;;;;23.97;11.90;;;14.40;99.90;;;14.94;52.94;99324.66;5988799;22;98151;-41
2024/03/11 00:57:09;;;;;;;21.13;12.43;;;14.40;99.90;;;14.98;51.21;99334.09;6038293;22;99218;-42
2024/03/11 00:59:35;;;;;;;24.00;11.70;;;14.50;99.90;;;14.98;52.14;99336.75;6010138;22;99751;-43
2024/03/11 01:02:01;;;;;;;21.17;11.40;;;14.50;99.90;;;14.86;58.61;99345.59;6040023;22;97155;-42
2024/03/11 01:04:27;;;;;;;22.50;12.10;;;14.40;99.90;;;14.74;58.89;99338.53;5972207;22;98705;-45
2024/03/11 01:06:53;;;;;;;22.40;12.10;;;14.30;99.90;;;14.59;58.74;99343.16;5862362;22;126560;-44
2024/03/11 01:09:25;;;;;;;22.73;12.70;;;14.20;99.90;;;14.51;58.44;99345.56;5971705;22;100814;-46
2024/03/11 01:11:58;;;;;;;21.57;12.43;;;14.00;99.90;;;14.48;58.17;99338.66;6008272;22;97332;-44
2024/03/11 01:14:24;;;;;;;17.27;9.67;;;14.00;99.90;;;14.46;55.21;99332.59;5997695;22;111198;-44
2024/03/11 01:16:49;;;;;;;23.30;12.17;;;14.00;99.90;;;14.48;57.16;99338.66;5985970;22;118108;-43
2024/03/11 01:19:22;;;;;;;23.63;12.80;;;13.90;99.90;;;14.45;57.34;99338.88;6054025;22;126349;-46
2024/03/11 01:21:48;;;;;;;27.17;12.80;;;13.90;99.90;;;14.46;57.45;99327.28;6032670;22;97608;-42
2024/03/11 01:24:16;;;;;;;24.97;13.00;;;13.90;99.90;;;14.44;56.29;99336.31;6107415;22;97917;-46
2024/03/11 01:26:47;;;;;;;22.70;13.23;;;13.90;99.90;;;14.54;57.18;99329.41;6113996;22;99480;-43
2024/03/11 01:29:15;;;;;;;23.80;12.27;;;14.00;99.90;;;14.58;56.33;99339.66;6095739;22;99262;-43
2024/03/11 01:31:46;;;;;;;20.87;11.60;;;14.00;99.90;;;14.65;52.75;99331.28;6127816;22;97332;-45
2024/03/11 01:34:13;;;;;;;21.10;11.60;;;14.10;99.90;;;14.63;52.80;99333.19;6085540;22;97335;-44
2024/03/11 01:36:39;;;;;;;22.17;11.93;;;14.10;99.90;;;14.56;56.71;99325.66;6082458;22;100799;-43
2024/03/11 01:39:08;;;;;;;21.93;12.27;;;14.10;99.90;;;14.49;56.68;99327.09;6006193;22;97947;-44
2024/03/11 01:41:38;;;;;;;24.27;13.50;;;14.00;99.90;;;14.52;55.75;99331.31;6109278;22;97168;-45
2024/03/11 01:44:07;;;;;;;26.77;13.03;;;14.00;99.90;;;14.53;54.12;99328.56;6043919;22;98442;-44
2024/03/11 01:46:34;;;;;;;23.30;12.13;;;14.00;99.90;;;14.50;56.36;99326.13;6124999;22;129536;-46
2024/03/11 01:49:04;;;;;;;21.43;13.00;;;14.00;99.90;;;14.57;54.95;99327.38;6115573;22;119868;-36
2024/03/11 01:51:32;;;;;;;22.00;11.77;;;14.00;99.90;;;14.47;57.45;99323.72;6086205;22;97919;-33
2024/03/11 01:53:58;;;;;;;23.70;13.47;;;14.00;99.90;;;14.42;57.90;99322.28;6079969;22;97336;-44
2024/03/11 01:56:28;;;;;;;28.00;13.17;;;14.00;99.90;;;14.48;55.49;99324.56;6083674;22;116340;-41
2024/03/11 01:58:56;;;;;;;23.90;12.30;;;14.00;99.90;;;14.53;54.54;99323.25;6073809;22;100077;-41
2024/03/11 02:01:23;;;;;;;24.87;12.83;;;14.00;99.90;;;14.59;54.67;99322.78;6093547;22;98032;-45
2024/03/11 02:03:50;;;;;;;24.03;12.13;;;14.10;99.90;;;14.55;53.59;99323.97;6106683;22;97376;-45
2024/03/11 02:06:19;;;;;;;23.20;13.03;;;14.10;99.90;;;14.68;52.41;99315.13;6100381;22;103465;-41
2024/03/11 02:08:47;;;;;;;21.13;11.83;;;14.20;99.90;;;14.66;53.09;99315.25;6114981;22;97535;-43
2024/03/11 02:11:17;;;;;;;22.93;12.37;;;14.20;99.90;;;14.73;52.95;99318.28;6071587;22;113090;-43
2024/03/11 02:13:44;;;;;;;24.17;12.90;;;14.30;99.90;;;14.77;52.47;99325.06;6104369;22;97495;-46
2024/03/11 02:16:11;;;;;;;17.83;9.83;;;14.30;99.90;;;14.84;51.70;99326.31;6096901;22;99185;-46
2024/03/11 02:18:37;;;;;;;23.30;12.93;;;14.40;99.90;;;14.73;56.13;99323.59;6101175;22;99033;-42
2024/03/11 02:21:02;;;;;;;25.27;12.07;;;14.40;99.90;;;14.70;55.63;99326.47;6116477;22;97703;-43
2024/03/11 02:23:30;;;;;;;23.07;12.57;;;14.20;99.90;;;14.68;54.51;99320.44;6121778;22;116479;-44
2024/03/11 02:25:56;;;;;;;26.03;12.87;;;14.20;99.90;;;14.65;56.59;99331.28;6088466;22;97913;-38
2024/03/11 02:28:22;;;;;;;27.70;14.00;;;14.20;99.90;;;14.53;59.62;99328.56;6085633;22;98027;-43
2024/03/11 02:30:48;;;;;;;27.70;13.70;;;14.10;99.90;;;14.53;58.49;99328.56;6085097;22;97873;-45
2024/03/11 02:33:14;;;;;;;22.20;12.30;;;14.10;99.90;;;14.63;52.73;99333.19;6068824;22;114131;-43
2024/03/11 02:35:43;;;;;;;23.80;12.13;;;14.20;99.90;;;14.67;56.27;99329.34;6100153;22;103851;-41
2024/03/11 02:38:08;;;;;;;23.13;13.17;;;14.20;99.90;;;14.50;58.15;99328.78;6107263;22;99631;-40
2024/03/11 02:40:38;;;;;;;26.83;14.97;;;14.10;99.90;;;14.59;55.27;99328.09;6122263;22;96665;-39
2024/03/11 02:43:07;;;;;;;24.53;12.70;;;14.10;99.90;;;14.71;52.47;99330.81;6067574;22;97843;-41
2024/03/11 02:45:34;;;;;;;21.97;12.60;;;14.20;99.90;;;14.76;53.31;99324.22;6097824;22;97798;-43
2024/03/11 02:48:00;;;;;;;25.57;13.33;;;14.30;99.90;;;14.71;55.16;99328.16;6061692;22;98966;-40
2024/03/11 02:50:26;;;;;;;26.23;14.63;;;14.30;99.90;;;14.76;53.29;99334.00;6082758;22;97115;-44
2024/03/11 02:52:52;;;;;;;27.40;14.07;;;14.30;99.90;;;14.83;52.50;99328.09;6082707;22;97341;-43
2024/03/11 02:55:21;;;;;;;26.97;14.20;;;14.50;99.90;;;14.85;52.35;99333.28;6086142;22;99333;-44
2024/03/11 02:57:48;;;;;;;26.27;13.20;;;14.50;99.90;;;14.86;52.32;99332.34;6127764;22;101470;-44
2024/03/11 03:00:16;;;;;;;27.17;13.07;;;14.50;99.90;;;14.85;53.39;99333.28;6085767;22;97261;-43
2024/03/11 03:02:42;;;;;;;25.07;13.40;;;14.50;99.90;;;14.84;53.54;99326.31;6058982;22;97363;-44
2024/03/11 03:05:09;;;;;;;24.50;13.73;;;14.50;99.90;;;14.76;55.15;99331.34;6080636;22;99554;-40
2024/03/11 03:07:36;;;;;;;26.03;13.73;;;14.40;99.90;;;14.67;56.58;99332.00;6086736;22;98943;-40
2024/03/11 03:10:05;;;;;;;27.63;14.90;;;14.30;99.90;;;14.71;55.90;99326.34;6114376;22;97251;-43
2024/03/11 03:12:30;;;;;;;26.33;15.27;;;14.40;99.90;;;14.70;52.82;99323.81;6124886;22;97088;-43
2024/03/11 03:14:57;;;;;;;27.17;15.43;;;14.30;99.90;;;14.66;54.41;99328.50;6083099;22;116616;-43
2024/03/11 03:17:24;;;;;;;30.30;16.20;;;14.30;99.90;;;14.70;52.93;99337.09;6098604;22;98838;-44
2024/03/11 03:19:49;;;;;;;27.33;15.40;;;14.30;99.90;;;14.61;56.91;99327.13;6083606;22;97157;-43
2024/03/11 03:22:15;;;;;;;22.60;13.30;;;14.30;99.90;;;14.75;52.54;99337.59;6093007;22;116570;-44
2024/03/11 03:24:41;;;;;;;28.57;16.00;;;14.40;99.90;;;14.84;52.14;99327.13;6116666;22;99534;-41
2024/03/11 03:27:08;;;;;;;26.50;15.50;;;14.60;99.90;;;14.84;54.41;99327.13;6115836;22;104246;-46
2024/03/11 03:29:35;;;;;;;31.70;16.13;;;14.60;99.90;;;14.86;54.03;99324.38;6122097;22;97476;-44
2024/03/11 03:32:01;;;;;;;25.50;16.00;;;14.70;99.90;;;14.83;52.95;99333.41;6114984;22;97234;-43
2024/03/11 03:34:30;;;;;;;29.00;15.83;;;14.60;99.90;;;14.90;52.61;99328.50;6044049;22;99333;-43
2024/03/11 03:36:55;;;;;;;30.87;15.90;;;14.70;99.90;;;14.94;51.92;99327.31;6099027;22;102250;-45
2024/03/11 03:39:21;;;;;;;25.33;14.67;;;14.70;99.90;;;14.92;52.67;99323.94;6119683;22;117825;-41
2024/03/11 03:41:47;;;;;;;24.57;14.30;;;14.70;99.90;;;15.01;51.61;99333.84;6103410;22;106301;-43
2024/03/11 03:44:12;;;;;;;26.27;15.73;;;14.80;99.90;;;15.00;51.60;99326.84;6104485;22;120007;-45
2024/03/11 03:46:39;;;;;;;29.03;16.80;;;14.80;99.90;;;14.97;54.93;99319.13;6107962;22;115791;-43
2024/03/11 03:49:05;;;;;;;26.40;15.57;;;14.80;99.90;;;14.91;55.39;99330.22;6118175;22;97503;-45
2024/03/11 03:51:31;;;;;;;26.27;15.33;;;14.70;99.90;;;14.88;53.21;99333.91;6116945;22;109218;-40
2024/03/11 03:53:58;;;;;;;23.83;13.77;;;14.50;99.90;;;14.90;53.02;99331.16;6077296;22;99422;-43
2024/03/11 03:56:25;;;;;;;29.43;15.73;;;14.60;99.90;;;14.85;55.37;99336.78;6072218;22;98885;-44
2024/03/11 03:58:52;;;;;;;29.07;16.17;;;14.60;99.90;;;14.73;55.67;99329.72;6122192;22;97319;-44
2024/03/11 04:01:18;;;;;;;27.60;15.07;;;14.40;99.90;;;14.79;55.31;99328.47;6113612;22;97333;-42
2024/03/11 04:03:43;;;;;;;28.47;15.60;;;14.40;99.90;;;14.75;55.96;99321.66;6033767;22;118627;-43
2024/03/11 04:06:10;;;;;;;28.40;16.10;;;14.40;99.90;;;14.63;57.97;99322.59;6083103;22;122166;-46
2024/03/11 04:08:36;;;;;;;29.30;16.50;;;14.30;99.90;;;14.53;56.79;99327.72;6084441;22;97308;-44
2024/03/11 04:11:05;;;;;;;29.03;16.90;;;14.20;99.90;;;14.46;57.69;99329.94;6114099;22;113002;-44
2024/03/11 04:13:31;;;;;;;24.07;14.27;;;14.10;99.90;;;14.38;55.70;99340.25;6084047;22;99516;-45
2024/03/11 04:15:57;;;;;;;20.73;12.07;;;14.00;99.90;;;14.35;55.63;99348.44;6102657;22;123294;-45
2024/03/11 04:18:24;;;;;;;25.37;14.43;;;14.00;99.90;;;14.50;53.37;99343.84;6133526;22;113602;-40
2024/03/11 04:20:50;;;;;;;24.47;14.93;;;14.10;99.90;;;14.62;53.91;99336.81;6083609;22;97217;-40
2024/03/11 04:23:17;;;;;;;29.07;16.33;;;14.30;99.90;;;14.43;56.81;99338.09;6101495;22;99948;-41
2024/03/11 04:25:43;;;;;;;31.17;16.17;;;14.10;99.90;;;14.47;57.08;99352.88;6103947;22;98202;-44
2024/03/11 04:28:09;;;;;;;27.50;14.50;;;14.10;99.90;;;14.43;56.46;99348.72;6113931;22;98778;-39
2024/03/11 04:30:41;;;;;;;28.33;16.23;;;14.00;99.90;;;14.40;58.92;99346.28;6108327;22;98598;-43
2024/03/11 04:33:08;;;;;;;30.10;16.77;;;14.00;99.90;;;14.25;60.45;99334.13;6085364;22;97924;-39
2024/03/11 04:35:35;;;;;;;25.17;15.80;;;13.90;99.90;;;14.23;58.33;99349.31;6095798;22;98987;-43
2024/03/11 04:38:05;;;;;;;12.53;7.50;;;13.70;99.90;;;14.34;54.24;99352.03;6105854;22;97125;-45
2024/03/11 04:40:37;;;;;;;29.33;16.47;;;13.80;99.90;;;14.27;56.87;99353.41;6111786;22;97091;-39
2024/03/11 04:43:04;;;;;;;26.33;15.87;;;13.80;99.90;;;14.40;55.41;99354.25;6109668;22;107624;-36
2024/03/11 04:45:30;;;;;;;19.13;10.53;;;13.90;99.90;;;14.38;55.37;99348.19;6110357;22;97433;-36
2024/03/11 04:47:58;;;;;;;23.47;14.40;;;13.90;99.90;;;14.19;60.05;99358.44;6070609;22;97156;-40
2024/03/11 04:50:30;;;;;;;10.97;7.40;;;13.80;99.90;;;14.38;53.93;99352.66;6094097;22;98529;-43
2024/03/11 04:53:02;;;;;;;25.53;15.07;;;13.90;99.90;;;14.37;56.92;99359.78;6091691;22;99901;-42
2024/03/11 04:55:32;;;;;;;19.23;12.77;;;13.90;99.90;;;14.38;54.64;99352.66;6106669;22;99042;-33
2024/03/11 04:58:01;;;;;;;15.33;8.07;;;13.90;99.90;;;14.44;53.99;99355.75;6038843;22;103236;-44
2024/03/11 05:00:30;;;;;;;32.67;15.80;;;13.90;99.90;;;14.48;56.22;99351.94;6062496;22;97007;-43
2024/03/11 05:03:02;;;;;;;10.80;6.80;;;14.00;99.90;;;14.53;53.58;99357.75;6062772;22;98549;-43
2024/03/11 05:05:40;;;;;;;14.40;8.77;;;14.00;99.90;;;14.33;55.16;99358.31;6035276;22;97915;-43
2024/03/11 05:08:07;;;;;;;24.53;13.93;;;13.90;99.90;;;14.24;60.73;99366.91;6070711;22;97817;-43
2024/03/11 05:10:37;;;;;;;28.00;14.43;;;13.90;99.90;;;14.27;57.13;99369.34;6075380;22;105196;-43
2024/03/11 05:13:04;;;;;;;25.87;14.67;;;13.80;99.90;;;14.17;60.44;99362.97;6122429;22;99778;-42
2024/03/11 05:15:32;;;;;;;28.60;16.20;;;13.80;99.90;;;14.34;54.74;99354.69;6088363;22;98912;-43
2024/03/11 05:17:58;;;;;;;27.43;15.23;;;13.90;99.90;;;14.36;57.50;99360.72;6076548;22;96968;-41
2024/03/11 05:20:23;;;;;;;26.40;14.70;;;14.00;99.90;;;14.23;59.26;99351.94;6087438;22;112881;-45
2024/03/11 05:22:50;;;;;;;29.23;14.50;;;13.90;99.90;;;14.13;60.08;99350.91;6122332;22;102548;-44
2024/03/11 05:25:17;;;;;;;25.40;14.37;;;13.80;99.90;;;14.04;60.46;99357.72;6082119;22;99117;-42
2024/03/11 05:27:47;;;;;;;26.60;14.13;;;13.70;99.90;;;13.90;60.19;99368.44;6056840;22;107608;-45
2024/03/11 05:30:14;;;;;;;30.30;15.60;;;13.50;99.90;;;13.76;62.00;99364.09;6111777;22;97732;-41
2024/03/11 05:32:40;;;;;;;30.57;15.97;;;13.40;99.90;;;13.83;60.94;99360.03;6128029;22;99287;-41
2024/03/11 05:35:07;;;;;;;28.70;15.10;;;13.50;99.90;;;13.84;59.99;99361.75;6103631;22;98847;-45
2024/03/11 05:37:33;;;;;;;28.90;15.60;;;13.50;99.90;;;13.91;57.88;99363.03;6093473;22;99119;-39
2024/03/11 05:39:59;;;;;;;28.80;16.03;;;13.50;99.90;;;14.02;59.17;99369.34;6087725;22;98265;-44
2024/03/11 05:42:25;;;;;;;28.37;15.63;;;13.60;99.90;;;13.97;60.49;99362.59;6063298;22;99719;-45
2024/03/11 05:44:51;;;;;;;30.03;14.90;;;13.60;99.90;;;13.92;59.25;99370.03;6099842;22;97756;-41
2024/03/11 05:47:17;;;;;;;27.07;15.50;;;13.50;99.90;;;13.94;58.98;99370.75;6087825;22;97316;-43
2024/03/11 05:49:43;;;;;;;27.90;16.07;;;13.50;99.90;;;13.85;61.17;99374.03;6097502;22;97064;-42
2024/03/11 05:52:09;;;;;;;28.00;15.17;;;13.60;99.90;;;13.71;59.80;99376.78;6075285;22;98124;-42
2024/03/11 05:54:38;;;;;;;26.50;15.20;;;13.40;99.90;;;14.03;55.85;99376.34;6103424;22;98958;-45
2024/03/11 05:57:05;;;;;;;25.33;14.67;;;13.60;99.90;;;14.16;55.40;99382.50;6117826;22;97491;-44
2024/03/11 05:59:31;;;;;;;27.37;15.13;;;13.80;99.90;;;13.94;60.17;99373.41;6076564;22;97289;-44
2024/03/11 06:01:58;;;;;;;27.03;15.13;;;13.70;99.90;;;13.97;59.53;99375.00;6070780;22;97387;-44
2024/03/11 06:04:27;;;;;;;27.23;15.73;;;13.60;99.90;;;14.12;57.43;99375.72;6058525;22;101918;-42
2024/03/11 06:06:54;;;;;;;28.33;15.27;;;13.80;99.90;;;14.19;56.63;99377.84;6106127;22;97982;-42
2024/03/11 06:09:20;;;;;;;27.93;15.57;;;13.80;99.90;;;14.25;56.89;99381.84;6103587;22;97360;-43
2024/03/11 06:11:48;;;;;;;27.47;14.83;;;13.90;99.90;;;14.35;54.93;99382.91;6019267;22;97969;-43
2024/03/11 06:14:15;;;;;;;27.30;15.57;;;13.90;99.90;;;14.46;54.06;99385.66;6081546;22;99158;-43
2024/03/11 06:16:43;;;;;;;30.10;15.53;;;14.10;99.90;;;14.58;53.83;99383.94;6113275;22;97474;-45
2024/03/11 06:19:14;;;;;;;29.93;15.57;;;14.30;99.90;;;14.61;54.68;99388.16;6094186;22;110850;-46
2024/03/11 06:21:44;;;;;;;29.13;14.70;;;14.40;99.90;;;14.73;53.44;99387.28;6104730;22;97987;-40
2024/03/11 06:24:11;;;;;;;24.43;13.40;;;14.50;99.90;;;14.83;52.85;99393.63;6037719;22;97551;-45
2024/03/11 06:26:37;;;;;;;28.03;14.80;;;14.60;99.90;;;14.96;52.83;99396.22;6097356;22;97461;-44
2024/03/11 06:29:06;;;;;;;29.33;16.60;;;14.80;99.90;;;14.71;55.43;99391.84;6101223;22;97748;-43
2024/03/11 06:31:36;;;;;;;29.67;15.80;;;14.60;99.90;;;14.78;55.20;99403.75;6125194;22;97725;-44
2024/03/11 06:34:04;;;;;;;31.53;16.03;;;14.60;99.90;;;14.53;57.20;99405.50;6105573;22;98473;-45
2024/03/11 06:36:29;;;;;;;29.10;16.53;;;14.30;99.90;;;14.58;56.51;99411.31;6102221;22;97433;-42
2024/03/11 06:38:58;;;;;;;28.73;14.90;;;14.30;99.90;;;14.56;55.85;99412.38;6115713;22;114008;-42
2024/03/11 06:41:25;;;;;;;32.07;16.63;;;14.30;99.90;;;14.65;53.91;99413.53;6063028;22;101398;-44
2024/03/11 06:43:51;;;;;;;30.90;16.87;;;14.30;99.90;;;14.68;53.86;99422.13;6075823;22;103167;-51
2024/03/11 06:46:18;;;;;;;29.80;17.20;;;14.30;99.90;;;14.68;54.75;99421.28;6024056;22;103008;-44
2024/03/11 06:48:44;;;;;;;28.03;15.07;;;14.40;99.90;;;14.72;53.52;99417.44;6087552;22;97778;-42
2024/03/11 06:51:12;;;;;;;30.17;16.23;;;14.40;99.90;;;14.62;56.36;99427.03;6116131;22;116820;-44
2024/03/11 06:53:43;;;;;;;32.00;17.00;;;14.40;99.90;;;14.69;54.13;99425.63;6090572;22;98189;-42
2024/03/11 06:56:12;;;;;;;35.20;16.83;;;14.40;99.90;;;14.32;57.80;99430.88;6110379;22;97518;-44
2024/03/11 06:58:47;;;;;;;33.27;17.37;;;14.10;99.90;;;14.45;57.13;99425.56;6035124;22;97462;-44
2024/03/11 07:01:13;;;;;;;31.67;16.60;;;14.20;99.90;;;14.57;54.85;99432.66;6081786;22;97637;-46
2024/03/11 07:03:42;;;;;;;23.53;13.30;;;14.30;99.90;;;14.56;54.09;99429.16;6123497;22;97971;-41
2024/03/11 07:06:09;;;;;;;22.27;13.23;;;14.20;99.90;;;14.63;54.08;99439.34;6103233;22;97470;-40
2024/03/11 07:08:36;;;;;;;31.23;16.47;;;14.40;99.90;;;14.49;55.21;99443.81;6110400;22;97793;-41
2024/03/11 07:11:03;;;;;;;31.17;17.70;;;14.30;99.90;;;14.55;55.65;99438.06;6095252;22;97853;-45
2024/03/11 07:13:31;;;;;;;28.20;16.00;;;14.40;99.90;;;14.50;54.97;99439.38;6089721;22;101750;-37
2024/03/11 07:16:04;;;;;;;32.40;17.53;;;14.30;99.90;;;14.59;54.33;99444.00;6094382;22;97208;-43
2024/03/11 07:18:30;;;;;;;22.27;13.47;;;14.40;99.90;;;14.72;53.38;99449.28;6101610;22;97485;-41
2024/03/11 07:20:59;;;;;;;33.80;17.87;;;14.60;99.90;;;14.69;55.54;99449.50;6043632;22;98770;-41
2024/03/11 07:23:28;;;;;;;34.97;18.67;;;14.70;99.90;;;14.48;56.99;99458.06;6071903;22;99239;-43
2024/03/11 07:25:58;;;;;;;38.87;18.43;;;14.40;99.90;;;14.43;55.82;99452.16;6079258;22;97378;-44
2024/03/11 07:28:28;;;;;;;31.83;16.53;;;14.20;99.90;;;14.68;53.72;99461.09;6079638;22;97101;-42
2024/03/11 07:30:55;;;;;;;33.23;17.27;;;14.40;99.90;;;14.50;54.88;99466.75;6051500;22;100014;-45
2024/03/11 07:33:22;;;;;;;23.83;12.30;;;14.30;99.90;;;14.41;56.62;99471.81;6108873;22;98345;-42
2024/03/11 07:35:50;;;;;;;37.57;17.90;;;14.30;99.90;;;14.30;56.80;99469.91;6108817;22;97402;-44
2024/03/11 07:38:17;;;;;;;20.40;11.70;;;14.10;99.90;;;14.43;55.66;99470.75;6038520;22;101441;-45
2024/03/11 07:40:45;;;;;;;31.83;18.57;;;14.10;99.90;;;14.26;58.02;99479.03;6058914;22;98061;-47
2024/03/11 07:43:12;;;;;;;36.73;19.37;;;14.00;99.90;;;14.09;58.62;99487.31;6024489;22;106857;-45
2024/03/11 07:45:39;;;;;;;38.07;19.03;;;13.70;99.90;;;14.09;59.11;99485.50;6021761;22;97285;-42
2024/03/11 07:48:09;;;;;;;34.10;19.63;;;13.70;99.90;;;13.99;60.04;99493.22;5999174;22;97459;-45
2024/03/11 07:50:37;;;;;;;35.60;18.60;;;13.70;99.90;;;13.92;59.72;99491.09;5999191;22;98434;-44
2024/03/11 07:53:03;;;;;;;32.70;18.83;;;13.60;99.90;;;13.84;60.36;99494.25;5932846;22;99919;-44
2024/03/11 07:55:29;;;;;;;36.40;19.97;;;13.50;99.90;;;13.91;59.33;99492.06;5925410;22;100105;-43
2024/03/11 07:57:56;;;;;;;30.40;16.77;;;13.50;99.90;;;13.85;57.91;99495.97;6007735;22;97848;-45
2024/03/11 08:00:29;;;;;;;32.33;17.53;;;13.40;99.90;;;13.88;57.17;99495.75;6051767;22;99314;-45
2024/03/11 08:02:57;;;;;;;28.10;14.27;;;13.50;99.90;;;14.09;56.82;99503.22;6037365;22;102830;-44
2024/03/11 08:05:24;;;;;;;31.40;17.10;;;13.70;99.90;;;14.14;57.73;99501.09;6048858;22;98732;-43
2024/03/11 08:07:50;;;;;;;26.33;15.27;;;13.80;99.90;;;14.17;58.67;99506.16;5996553;22;103089;-44
2024/03/11 08:10:17;;;;;;;27.10;15.30;;;13.90;99.90;;;14.29;55.69;99510.63;6031731;22;102049;-40
2024/03/11 08:12:45;;;;;;;31.47;16.40;;;13.90;99.90;;;14.35;57.02;99514.69;5918618;22;98308;-45
2024/03/11 08:15:14;;;;;;;23.23;12.77;;;14.10;99.90;;;14.48;54.44;99519.06;5906324;22;97536;-44
2024/03/11 08:17:44;;;;;;;28.63;16.10;;;14.20;99.90;;;14.29;58.50;99518.59;6039155;22;99784;-44
2024/03/11 08:20:16;;;;;;;25.10;14.47;;;14.00;99.90;;;14.47;55.39;99514.72;5996610;22;101338;-42
2024/03/11 08:22:47;;;;;;;31.23;14.83;;;14.10;99.90;;;14.36;57.58;99522.53;5954604;22;106299;-44
2024/03/11 08:25:18;;;;;;;14.23;8.20;;;14.00;99.90;;;14.51;54.65;99521.50;5979943;22;99118;-44
2024/03/11 08:27:48;;;;;;;13.63;7.33;;;14.20;99.90;;;14.35;58.52;99515.53;6050191;22;97223;-46
2024/03/11 08:30:16;;;;;;;11.77;6.90;;;14.20;99.90;;;14.48;54.55;99529.69;6037802;22;99592;-43
2024/03/11 08:32:47;;;;;;;10.23;4.73;;;14.20;99.90;;;14.32;57.20;99529.03;6009146;22;99511;-43
2024/03/11 08:35:24;;;;;;;7.40;4.63;;;14.10;99.90;;;14.18;58.55;99522.00;5986277;22;97941;-44
2024/03/11 08:37:53;;;;;;;2.20;1.37;;;13.90;99.90;;;14.01;59.96;99532.88;5967260;22;98708;-47
2024/03/11 08:40:22;;;;;;;2.17;1.30;;;13.70;99.90;;;13.82;61.38;99538.56;5999315;22;98720;-39
2024/03/11 08:42:48;;;;;;;3.27;1.50;;;13.60;99.90;;;13.65;60.39;99536.19;5937898;22;99738;-43
2024/03/11 08:45:22;;;;;;;4.73;2.97;;;13.40;99.90;;;13.72;59.31;99548.06;5960445;22;103704;-42
2024/03/11 08:47:51;;;;;;;2.80;1.70;;;13.40;99.90;;;13.62;59.76;99544.34;5987097;22;98187;-45
2024/03/11 08:50:17;;;;;;;2.77;1.17;;;13.40;99.90;;;13.53;61.33;99552.91;6059571;22;98486;-45
2024/03/11 08:52:48;;;;;;;1.80;1.00;;;13.40;99.90;;;13.50;61.13;99548.66;6076064;22;99037;-42
2024/03/11 08:55:17;;;;;;;1.47;1.03;;;13.40;99.90;;;13.42;61.56;99547.44;6110514;22;97376;-45
2024/03/11 08:57:45;;;;;;;4.00;1.70;;;13.30;99.90;;;13.46;60.00;99554.25;6100750;22;98368;-43
2024/03/11 09:00:15;;;;;;;3.57;1.80;;;13.20;99.90;;;13.37;60.47;99553.88;6120122;22;99646;-41
2024/03/11 09:02:41;;;;;;;4.00;2.60;;;13.20;99.90;;;13.39;59.34;99554.63;6084477;22;98703;-45
2024/03/11 09:05:12;;;;;;;2.53;1.57;;;13.10;99.90;;;13.22;60.00;99560.16;6020643;22;97840;-42
2024/03/11 09:07:41;;;;;;;3.77;1.30;;;13.10;99.90;;;13.24;62.39;99568.00;6082594;22;97210;-44
2024/03/11 09:10:10;;;;;;;3.13;1.73;;;13.00;99.90;;;13.32;61.08;99577.19;6114194;22;98536;-43
2024/03/11 09:12:39;;;;;;;2.50;1.33;;;13.00;99.90;;;13.11;62.67;99574.03;6114749;22;99790;-43
2024/03/11 09:15:15;;;;;;;5.00;2.73;;;12.90;99.90;;;13.30;59.07;99580.84;6120796;22;97136;-41
2024/03/11 09:17:42;;;;;;;3.17;1.87;;;12.90;99.90;;;13.35;61.34;99576.97;6093462;22;97219;-46
2024/03/11 09:20:16;;;;;;;3.17;1.20;;;13.00;99.90;;;13.22;62.01;99591.94;6104833;22;101264;-42
2024/03/11 09:22:47;;;;;;;2.03;1.17;;;13.00;99.90;;;13.07;63.79;99592.88;6116161;22;97865;-41
2024/03/11 09:25:23;;;;;;;2.60;2.03;;;12.90;99.90;;;13.25;61.89;99596.19;6117240;22;97317;-44
2024/03/11 09:28:00;;;;;;;3.77;1.30;;;12.90;99.90;;;12.99;63.87;99600.44;6118079;22;102439;-42
2024/03/11 09:30:29;;;;;;;1.83;1.50;;;12.90;99.90;;;13.11;62.57;99594.38;6092035;22;103426;-42
2024/03/11 09:32:55;;;;;;;1.53;1.10;;;12.80;99.90;;;13.02;63.50;99605.56;6114928;22;99026;-43
2024/03/11 09:35:21;;;;;;;1.00;0.80;;;12.80;99.90;;;12.93;63.22;99616.72;6122789;22;119430;-42
2024/03/11 09:37:52;;;;;;;1.67;1.00;;;12.80;99.90;;;12.95;63.68;99620.09;6062198;22;98268;-41
2024/03/11 09:40:26;;;;;;;2.07;1.00;;;12.80;99.90;;;12.84;64.32;99618.09;5900845;22;101353;-45
2024/03/11 09:42:58;;;;;;;3.67;2.23;;;12.70;99.90;;;13.09;62.11;99622.75;5997783;22;103537;-39
2024/03/11 09:45:29;;;;;;;2.13;1.33;;;12.90;99.90;;;13.04;63.10;99635.44;5999191;22;97643;-42
2024/03/11 09:48:04;;;;;;;2.23;1.50;;;12.90;99.90;;;13.05;61.82;99631.84;5964697;22;100445;-43
2024/03/11 09:50:32;;;;;;;1.10;0.80;;;12.90;99.90;;;12.99;63.98;99633.03;6016901;22;104024;-43
2024/03/11 09:53:06;;;;;;;2.60;1.37;;;12.90;99.90;;;12.88;64.59;99634.69;6016948;22;97820;-41
2024/03/11 09:55:35;;;;;;;2.77;1.20;;;12.80;99.90;;;13.05;62.71;99637.97;6047175;22;97727;-44
2024/03/11 09:58:15;;;;;;;3.67;1.40;;;12.80;99.90;;;12.97;62.82;99644.69;6031108;22;97609;-45
2024/03/11 10:00:55;;;;;;;2.20;1.00;;;12.70;99.90;;;13.01;63.54;99652.31;5994992;22;99258;-43
2024/03/11 10:03:26;;;;;;;3.07;1.40;;;12.80;99.90;;;13.19;62.45;99650.41;5999177;22;106587;-44
2024/03/11 10:05:58;;;;;;;2.70;1.40;;;12.90;99.90;;;12.97;63.24;99655.25;6000435;22;97349;-44
2024/03/11 10:08:30;;;;;;;1.70;1.13;;;12.90;99.90;;;12.99;64.66;99654.22;5986028;22;108054;-44
2024/03/11 10:11:17;;;;;;;1.93;1.00;;;12.90;99.90;;;13.17;62.60;99657.56;5909709;22;103687;-44